createdAt,value
2022-08-21T00:03:25.833Z,0
2022-08-21T00:08:48.464Z,0
2022-08-21T00:19:36.344Z,0
2022-08-21T00:24:58.908Z,0
2022-08-21T00:30:23.683Z,0
2022-08-21T00:35:48.859Z,0
2022-08-21T00:41:38.994Z,0
2022-08-21T00:47:11.173Z,0
2022-08-21T00:52:33.480Z,0
2022-08-21T00:57:59.498Z,0
2022-08-21T01:03:24.008Z,0
2022-08-21T01:08:48.678Z,0
2022-08-21T01:14:11.386Z,0
2022-08-21T01:19:33.835Z,0
2022-08-21T01:24:59.081Z,0
2022-08-21T01:30:21.593Z,0
2022-08-21T01:35:44.043Z,0
2022-08-21T01:46:28.974Z,0
2022-08-21T01:57:41.714Z,0
2022-08-21T02:03:04.084Z,0
2022-08-21T02:08:26.595Z,0
2022-08-21T02:13:51.771Z,0
2022-08-21T02:19:14.263Z,0
2022-08-21T02:24:55.339Z,0
2022-08-21T02:30:17.917Z,0
2022-08-21T02:35:40.376Z,0
2022-08-21T02:41:05.156Z,0
2022-08-21T02:46:35.193Z,0
2022-08-21T02:51:57.739Z,0
2022-08-21T02:57:20.195Z,0
2022-08-21T03:02:42.638Z,0
2022-08-21T03:08:05.054Z,0
2022-08-21T03:13:27.595Z,0
2022-08-21T03:19:08.149Z,0
2022-08-21T03:24:32.518Z,0
2022-08-21T03:29:55.090Z,0
2022-08-21T03:35:18.039Z,0
2022-08-21T03:51:25.553Z,0
2022-08-21T03:56:51.156Z,0
2022-08-21T04:02:13.542Z,0
2022-08-21T04:07:52.346Z,0
2022-08-21T04:13:17.739Z,0
2022-08-21T04:18:40.279Z,0
2022-08-21T04:24:02.750Z,4
2022-08-21T04:29:28.195Z,13
2022-08-21T04:34:50.647Z,20.6
2022-08-21T04:40:15.567Z,23.6
2022-08-21T04:45:38.302Z,26.8
2022-08-21T04:51:01.025Z,31.7
2022-08-21T04:56:26.874Z,37.2
2022-08-21T05:01:49.824Z,47.7
2022-08-21T05:07:12.686Z,47.2
2022-08-21T05:12:37.045Z,54.3
2022-08-21T05:18:01.970Z,58.3
2022-08-21T05:23:33.295Z,68.7
2022-08-21T05:28:57.443Z,76.4
2022-08-21T05:34:25.395Z,87.4
2022-08-21T05:40:23.317Z,107.9
2022-08-21T05:45:46.453Z,258.1
2022-08-21T05:51:09.844Z,332.8
2022-08-21T05:56:34.461Z,242
2022-08-21T06:01:57.144Z,191.2
2022-08-21T06:07:21.984Z,452.8
2022-08-21T06:12:47.370Z,226.6
2022-08-21T06:18:10.075Z,220.4
2022-08-21T06:23:35.799Z,620.8
2022-08-21T06:28:59.572Z,307.1
2022-08-21T06:34:22.650Z,749.7
2022-08-21T06:39:45.720Z,641.6
2022-08-21T06:45:12.029Z,1570.3
2022-08-21T06:50:43.754Z,1280.2
2022-08-21T06:56:06.704Z,1990.9
2022-08-21T07:01:32.941Z,1468.8
2022-08-21T07:06:55.945Z,454.5
2022-08-21T07:12:36.811Z,377.3
2022-08-21T07:17:59.342Z,420.8
2022-08-21T07:23:24.815Z,347.1
2022-08-21T07:45:02.221Z,459.3
2022-08-21T07:50:28.134Z,706.4
2022-08-21T07:55:53.822Z,1285.4
2022-08-21T08:01:16.639Z,1508.6
2022-08-21T08:06:50.887Z,509.1
2022-08-21T08:12:13.168Z,709.3
2022-08-21T08:17:45.303Z,1628.1
2022-08-21T08:23:09.701Z,1927
2022-08-21T08:29:43.374Z,1875.2
2022-08-21T08:35:07.909Z,1911.8
2022-08-21T08:40:30.945Z,1526.7
2022-08-21T08:46:13.892Z,1250.2
2022-08-21T08:51:46.058Z,1506.7
2022-08-21T08:57:09.354Z,2142.9
2022-08-21T09:02:32.836Z,2065.9
2022-08-21T09:07:55.727Z,2304.5
2022-08-21T09:13:18.907Z,2086.5
2022-08-21T09:18:41.981Z,2252.7
2022-08-21T09:24:12.111Z,2011.1
2022-08-21T09:29:35.116Z,1553.1
2022-08-21T09:35:08.295Z,2069.1
2022-08-21T09:40:31.169Z,2119.5
2022-08-21T09:46:12.442Z,2027.9
2022-08-21T09:51:39.450Z,1492.3
2022-08-21T09:57:04.128Z,1944.3
2022-08-21T10:02:28.652Z,1744.7
2022-08-21T10:07:55.840Z,1561.3
2022-08-21T10:13:18.016Z,1621.1
2022-08-21T10:18:41.151Z,1834.3
2022-08-21T10:24:06.713Z,1947.6
2022-08-21T10:29:28.945Z,2172.1
2022-08-21T10:34:54.918Z,2179.6
2022-08-21T10:40:18.125Z,2070.1
2022-08-21T11:03:28.831Z,2186.3
2022-08-21T11:08:52.540Z,2374.7
2022-08-21T11:14:15.567Z,1951.8
2022-08-21T11:19:41.882Z,2423.5
2022-08-21T11:25:06.932Z,2326.2
2022-08-21T11:36:26.538Z,2258.1
2022-08-21T11:41:49.413Z,2453.7
2022-08-21T11:47:12.104Z,2284.7
2022-08-21T11:52:34.213Z,2056.7
2022-08-21T11:58:04.743Z,1780.9
2022-08-21T12:03:26.498Z,1081
2022-08-21T12:14:15.545Z,1963.4
2022-08-21T12:19:37.040Z,1066.5
2022-08-21T12:25:01.191Z,2029.9
2022-08-21T12:30:28.319Z,1864.2
2022-08-21T12:35:53.308Z,2141.2
2022-08-21T12:41:36.697Z,2034
2022-08-21T12:47:02.626Z,2092.7
2022-08-21T12:52:25.299Z,2209.2
2022-08-21T12:57:47.896Z,2013.6
2022-08-21T13:03:09.279Z,1181
2022-08-21T13:08:31.722Z,1882.4
2022-08-21T13:13:54.559Z,2429.6
2022-08-21T13:19:40.844Z,2039.7
2022-08-21T13:25:07.976Z,2649.8
2022-08-21T13:30:30.523Z,2547.4
2022-08-21T13:35:53.091Z,2253.9
2022-08-21T13:41:14.002Z,994.8
2022-08-21T13:46:35.262Z,642.1
2022-08-21T14:02:47.427Z,612
2022-08-21T14:08:09.588Z,618.9
2022-08-21T14:13:38.170Z,615.7
2022-08-21T14:19:08.692Z,698.5
2022-08-21T14:24:31.505Z,893.9
2022-08-21T14:30:01.808Z,723.4
2022-08-21T14:35:24.881Z,1065.1
2022-08-21T14:40:47.745Z,902.8
2022-08-21T14:46:10.907Z,1543.8
2022-08-21T14:51:54.400Z,716.9
2022-08-21T15:02:44.717Z,507.5
2022-08-21T15:08:35.674Z,440.3
2022-08-21T15:24:39.259Z,377.7
2022-08-21T15:35:03.696Z,382.7
2022-08-21T15:40:26.769Z,400.1
2022-08-21T15:45:50.005Z,433.6
2022-08-21T15:56:15.178Z,430.8
2022-08-21T16:01:45.508Z,415
2022-08-21T16:07:09.994Z,387.3
2022-08-21T16:12:32.704Z,340.3
2022-08-21T16:17:55.099Z,305.3
2022-08-21T16:29:01.041Z,265.8
2022-08-21T16:34:32.271Z,268.7
2022-08-21T16:39:56.043Z,262.2
2022-08-21T16:45:18.826Z,253
2022-08-21T16:50:41.695Z,239.9
2022-08-21T16:56:04.055Z,223.3
2022-08-21T17:01:28.188Z,220.9
2022-08-21T17:06:50.696Z,207.8
2022-08-21T17:12:13.311Z,189.6
2022-08-21T17:17:35.755Z,170.9
2022-08-21T17:22:58.536Z,161.2
2022-08-21T17:28:21.383Z,154.8
2022-08-21T17:33:46.798Z,132.2
2022-08-21T17:44:32.399Z,93.9
2022-08-21T17:49:55.561Z,73.5
2022-08-21T17:55:21.694Z,62.8
2022-08-21T18:00:44.029Z,56.1
2022-08-21T18:06:06.845Z,46.4
2022-08-21T18:11:29.467Z,33.8
2022-08-21T18:16:51.939Z,30.5
2022-08-21T18:22:14.459Z,22.8
2022-08-21T18:27:46.258Z,21.7
2022-08-21T18:33:09.479Z,20.6
2022-08-21T18:38:34.363Z,17.8
2022-08-21T18:43:56.813Z,8
2022-08-21T18:49:23.168Z,2
2022-08-21T18:54:50.237Z,0
2022-08-21T19:00:12.936Z,0
2022-08-21T19:05:39.861Z,0
2022-08-21T19:11:13.325Z,0
2022-08-21T19:16:38.852Z,0
2022-08-21T19:22:11.311Z,0
2022-08-21T19:27:34.106Z,0
2022-08-21T19:32:56.724Z,0
2022-08-21T19:38:19.703Z,0
2022-08-21T19:43:42.311Z,0
2022-08-21T19:49:05.876Z,0
2022-08-21T19:54:29.881Z,0
2022-08-21T20:00:19.220Z,0
2022-08-21T20:05:43.996Z,0
2022-08-21T20:11:23.748Z,0
2022-08-21T20:16:46.677Z,0
2022-08-21T20:22:09.137Z,0
2022-08-21T20:27:40.714Z,0
2022-08-21T20:33:03.985Z,0
2022-08-21T20:38:26.672Z,0
2022-08-21T20:43:50.402Z,0
2022-08-21T20:49:15.256Z,0
2022-08-21T20:54:38.083Z,0
2022-08-21T21:00:00.390Z,0
2022-08-21T21:05:39.594Z,0
2022-08-21T21:11:02.306Z,0
2022-08-21T21:16:27.907Z,0
2022-08-21T21:21:52.392Z,0
2022-08-21T22:47:26.455Z,0
2022-08-21T22:52:48.648Z,0
2022-08-21T22:58:11.037Z,0
2022-08-21T23:03:37.868Z,0
2022-08-21T23:09:01.128Z,0
2022-08-21T23:14:23.966Z,0
2022-08-21T23:19:48.015Z,0
2022-08-21T23:25:10.283Z,0
2022-08-21T23:30:36.623Z,0
2022-08-21T23:35:58.856Z,0
